Meadow, South Dakota
Current Conditions -  °F | °C
As of 4:53 AM on Monday 20 Oct 2014 (Local Time) from KHEI Reporting Station
Clear Clear  
Wind Chill: 34°   Ceiling: Unl
Heat Index: 38°   Visibility: 10mi
Dew Point: 32°   Wind: 5mph
Humidity: 79%   Direction: 120°ESE
Pressure: 30.06"   Gusts: NA
Location:  45.53°N, 102.22°W
Report Text: KHEI 201053Z AUTO 12004KT 10SM CLR 03/00 A3006 RMK AO2 SLP180 T00330000
Loading
Personal Weather Stations






























Interactive Weather Map New forecast layout! Learn more

10-Day Weather Forecast

Advertisements
Track Severe Weather on mobile